Time;durP1;ratioP1;P1;durP2;ratioP2;P2;SDS_P1;SDS_P2;PMS_P1;PMS_P2;Temp;Humidity;BMP_temperature;BMP_pressure;BME280_temperature;BME280_humidity;BME280_pressure;Samples;Min_cycle;Max_cycle;Signal;HPM_P1;HPM_P2
2022/12/26 00:01:10;;;;;;;;;;;17.30;87.40;;;;;;5114705;28;19907;-46
2022/12/26 00:03:36;;;;;;;;;;;17.40;87.40;;;;;;5114281;28;19911;-45
2022/12/26 00:06:02;;;;;;;;;;;17.40;87.30;;;;;;5114601;28;19911;-43
2022/12/26 00:08:27;;;;;;;;;;;17.30;87.20;;;;;;5114479;28;19911;-43
2022/12/26 00:10:53;;;;;;;;;;;17.40;87.30;;;;;;5114429;28;20400;-43
2022/12/26 00:13:18;;;;;;;;;;;17.40;87.30;;;;;;5114413;28;19911;-44
2022/12/26 00:15:44;;;;;;;;;;;17.40;87.30;;;;;;5114154;28;19912;-45
2022/12/26 00:18:09;;;;;;;;;;;17.40;87.30;;;;;;5114188;28;19912;-43
2022/12/26 00:20:35;;;;;;;;;;;17.30;87.20;;;;;;5114505;28;19908;-45
2022/12/26 00:23:00;;;;;;;;;;;17.40;87.30;;;;;;5114145;28;20378;-42
2022/12/26 00:25:26;;;;;;;;;;;17.30;87.20;;;;;;5096166;28;19960;-44
2022/12/26 00:27:51;;;;;;;;;;;17.40;87.30;;;;;;5096202;28;19907;-44
2022/12/26 00:30:17;;;;;;;;;;;17.30;87.30;;;;;;5114420;28;19915;-43
2022/12/26 00:32:42;;;;;;;;;;;17.30;87.30;;;;;;5114002;28;19912;-44
2022/12/26 00:35:08;;;;;;;;;;;17.30;87.30;;;;;;5114316;28;19912;-42
2022/12/26 00:37:33;;;;;;;;;;;17.30;87.30;;;;;;5114001;28;19927;-43
2022/12/26 00:39:59;;;;;;;;;;;17.30;87.30;;;;;;5113977;28;19912;-42
2022/12/26 00:42:24;;;;;;;;;;;17.30;87.30;;;;;;5113971;28;19908;-44
2022/12/26 00:44:50;;;;;;;;;;;17.30;87.30;;;;;;5114297;28;20353;-43
2022/12/26 00:47:15;;;;;;;;;;;17.30;87.30;;;;;;5114314;28;19947;-42
2022/12/26 00:49:41;;;;;;;;;;;17.30;87.30;;;;;;5114172;28;19912;-44
2022/12/26 00:52:06;;;;;;;;;;;17.30;87.30;;;;;;5113728;28;19922;-44
2022/12/26 00:54:32;;;;;;;;;;;17.30;87.30;;;;;;5113889;28;20274;-43
2022/12/26 00:56:57;;;;;;;;;;;17.30;87.30;;;;;;5115943;28;20025;-43
2022/12/26 00:59:23;;;;;;;;;;;17.30;87.30;;;;;;5118013;28;19915;-44
2022/12/26 01:01:48;;;;;;;;;;;17.30;87.30;;;;;;5118002;28;19915;-42
2022/12/26 01:04:14;;;;;;;;;;;17.30;87.30;;;;;;5117691;28;19915;-44
2022/12/26 01:06:39;;;;;;;;;;;17.30;87.30;;;;;;5117651;28;19914;-43
2022/12/26 01:09:04;;;;;;;;;;;17.30;87.30;;;;;;5117623;28;20354;-49
2022/12/26 01:11:39;;;;;;;;;;;17.30;87.30;;;;;;5117544;28;19929;-43
2022/12/26 01:14:15;;;;;;;;;;;17.30;87.80;;;;;;5117552;28;19997;-47
2022/12/26 01:16:41;;;;;;;;;;;17.30;87.20;;;;;;5117751;28;20010;-43
2022/12/26 01:19:07;;;;;;;;;;;17.30;87.20;;;;;;5117353;28;19914;-43
2022/12/26 01:21:33;;;;;;;;;;;17.30;87.20;;;;;;5117533;28;20325;-43
2022/12/26 01:23:58;;;;;;;;;;;17.30;87.20;;;;;;5117557;28;20343;-43
2022/12/26 01:26:24;;;;;;;;;;;17.30;87.20;;;;;;5117184;28;19908;-43
2022/12/26 01:28:50;;;;;;;;;;;17.30;87.20;;;;;;5117757;28;20017;-42
2022/12/26 01:31:15;;;;;;;;;;;17.30;87.20;;;;;;5117438;28;20388;-45
2022/12/26 01:33:41;;;;;;;;;;;17.30;87.20;;;;;;5117291;28;19912;-43
2022/12/26 01:36:06;;;;;;;;;;;17.30;87.20;;;;;;5117652;28;19916;-43
2022/12/26 01:38:32;;;;;;;;;;;17.40;87.20;;;;;;5117153;28;19926;-42
2022/12/26 01:41:15;;;;;;;;;;;17.30;87.20;;;;;;5116946;28;20305;-42
2022/12/26 01:43:51;;;;;;;;;;;17.30;87.20;;;;;;5118054;28;19915;-43
2022/12/26 01:46:20;;;;;;;;;;;17.30;87.20;;;;;;5116835;28;19911;-43
2022/12/26 01:48:46;;;;;;;;;;;17.30;87.20;;;;;;5117070;28;19915;-44
2022/12/26 01:51:12;;;;;;;;;;;17.30;87.20;;;;;;5117455;28;19908;-45
2022/12/26 01:53:48;;;;;;;;;;;17.30;87.20;;;;;;5116922;28;19912;-42
2022/12/26 01:56:15;;;;;;;;;;;17.30;87.20;;;;;;5116923;28;19912;-44
2022/12/26 01:58:49;;;;;;;;;;;17.30;87.30;;;;;;5116659;28;19908;-43
2022/12/26 02:01:16;;;;;;;;;;;17.30;87.30;;;;;;5116568;28;19908;-45
2022/12/26 02:06:27;;;;;;;;;;;17.30;87.30;;;;;;5116550;28;19958;-44
2022/12/26 02:08:53;;;;;;;;;;;17.30;87.30;;;;;;5115645;28;19911;-43
2022/12/26 02:11:19;;;;;;;;;;;17.30;87.30;;;;;;5116990;28;19914;-44
2022/12/26 02:13:44;;;;;;;;;;;17.20;87.30;;;;;;5116220;28;19912;-43
2022/12/26 02:16:12;;;;;;;;;;;17.30;87.30;;;;;;5116276;28;19922;-44
2022/12/26 02:18:38;;;;;;;;;;;17.20;87.20;;;;;;5116150;28;19915;-43
2022/12/26 02:21:10;;;;;;;;;;;17.20;87.20;;;;;;5116275;28;19909;-42
2022/12/26 02:23:51;;;;;;;;;;;17.30;87.30;;;;;;5116568;28;19920;-47
2022/12/26 02:26:23;;;;;;;;;;;17.30;87.30;;;;;;5116368;28;19950;-43
2022/12/26 02:28:54;;;;;;;;;;;17.20;87.20;;;;;;5116061;28;19911;-43
2022/12/26 02:31:22;;;;;;;;;;;17.30;87.30;;;;;;5115975;28;19908;-43
2022/12/26 02:34:04;;;;;;;;;;;17.30;87.30;;;;;;5115909;28;19916;-43
2022/12/26 02:36:39;;;;;;;;;;;17.20;87.20;;;;;;5116307;28;19912;-43
2022/12/26 02:39:09;;;;;;;;;;;17.20;87.20;;;;;;5115692;28;20044;-45
2022/12/26 02:41:46;;;;;;;;;;;17.30;87.20;;;;;;5097540;28;19908;-43
2022/12/26 02:47:18;;;;;;;;;;;17.30;87.20;;;;;;5115796;28;19915;-43
2022/12/26 03:15:02;;;;;;;;;;;17.30;87.10;;;;;;5115252;28;19923;-44
2022/12/26 03:17:34;;;;;;;;;;;17.30;87.10;;;;;;5115350;28;19908;-44
2022/12/26 03:19:59;;;;;;;;;;;17.30;87.10;;;;;;5115079;28;19908;-45
2022/12/26 03:22:31;;;;;;;;;;;17.30;87.10;;;;;;5115218;28;19908;-44
2022/12/26 03:27:42;;;;;;;;;;;17.20;87.10;;;;;;5115341;28;19996;-43
2022/12/26 03:32:54;;;;;;;;;;;17.20;87.20;;;;;;5114880;28;19919;-43
2022/12/26 03:35:20;;;;;;;;;;;17.20;87.20;;;;;;5115038;28;20058;-44
2022/12/26 03:37:48;;;;;;;;;;;17.20;87.20;;;;;;5114733;28;19979;-43
2022/12/26 04:20:14;;;;;;;;;;;17.30;87.10;;;;;;5114570;28;19957;-42
2022/12/26 04:45:21;;;;;;;;;;;17.20;87.10;;;;;;5118122;28;19958;-43
2022/12/26 04:50:32;;;;;;;;;;;17.20;87.10;;;;;;5118321;28;19915;-44
2022/12/26 04:52:57;;;;;;;;;;;17.20;87.10;;;;;;5099717;28;20274;-43
2022/12/26 04:55:27;;;;;;;;;;;17.20;87.10;;;;;;5117819;28;19973;-42
2022/12/26 04:57:52;;;;;;;;;;;17.20;87.00;;;;;;5117788;28;19912;-43
2022/12/26 05:00:18;;;;;;;;;;;17.30;87.10;;;;;;5117754;28;19915;-43
2022/12/26 05:11:05;;;;;;;;;;;17.20;87.00;;;;;;5117608;28;19931;-44
2022/12/26 05:13:31;;;;;;;;;;;17.20;87.00;;;;;;5117633;28;20351;-44
2022/12/26 05:29:51;;;;;;;;;;;17.20;87.00;;;;;;5082833;28;19914;-43
2022/12/26 05:35:00;;;;;;;;;;;17.20;87.00;;;;;;5117113;28;20401;-47
2022/12/26 05:37:26;;;;;;;;;;;17.30;87.00;;;;;;5116964;28;19963;-42
2022/12/26 05:39:51;;;;;;;;;;;17.30;87.00;;;;;;5116956;28;19915;-43
2022/12/26 05:42:17;;;;;;;;;;;17.30;87.00;;;;;;5098905;28;19957;-42
2022/12/26 05:44:43;;;;;;;;;;;17.30;87.00;;;;;;5116947;28;19974;-43
2022/12/26 05:47:09;;;;;;;;;;;17.30;87.00;;;;;;5116861;28;19915;-45
2022/12/26 05:49:34;;;;;;;;;;;17.30;87.00;;;;;;5116783;28;19908;-43
2022/12/26 05:52:00;;;;;;;;;;;17.20;87.00;;;;;;5116923;28;19912;-44
2022/12/26 05:54:25;;;;;;;;;;;17.20;87.00;;;;;;5098689;28;20056;-43
2022/12/26 05:56:52;;;;;;;;;;;17.20;87.00;;;;;;5116585;28;20247;-43
2022/12/26 05:59:17;;;;;;;;;;;17.20;87.00;;;;;;5116559;28;19908;-42
2022/12/26 06:01:43;;;;;;;;;;;17.30;87.00;;;;;;5116537;28;20003;-43
2022/12/26 06:04:08;;;;;;;;;;;17.20;87.00;;;;;;5117149;28;20335;-43
2022/12/26 06:06:33;;;;;;;;;;;17.20;87.00;;;;;;5116749;28;19947;-43
2022/12/26 06:08:59;;;;;;;;;;;17.20;87.50;;;;;;5116744;28;20397;-42
2022/12/26 06:11:25;;;;;;;;;;;17.20;87.00;;;;;;5116688;28;19915;-43
2022/12/26 06:13:51;;;;;;;;;;;17.20;86.90;;;;;;5116201;28;19911;-43
2022/12/26 06:16:16;;;;;;;;;;;17.20;86.90;;;;;;5116289;28;19915;-44
2022/12/26 06:18:42;;;;;;;;;;;17.20;86.90;;;;;;5116266;28;19954;-43
2022/12/26 06:21:09;;;;;;;;;;;17.20;87.00;;;;;;5098266;28;19908;-42
2022/12/26 06:23:35;;;;;;;;;;;17.20;86.90;;;;;;5116375;28;20301;-43
2022/12/26 06:26:01;;;;;;;;;;;17.20;86.90;;;;;;5116355;28;19912;-43
2022/12/26 06:28:26;;;;;;;;;;;17.20;87.00;;;;;;5097990;28;20282;-42
2022/12/26 06:30:52;;;;;;;;;;;17.20;87.00;;;;;;5097884;28;19908;-42
2022/12/26 06:33:17;;;;;;;;;;;17.20;87.00;;;;;;5080953;28;19919;-43
2022/12/26 06:35:43;;;;;;;;;;;17.20;86.90;;;;;;5116114;28;19918;-43
2022/12/26 06:38:09;;;;;;;;;;;17.20;87.00;;;;;;5116093;28;19919;-44
2022/12/26 06:40:37;;;;;;;;;;;17.20;87.00;;;;;;5115714;28;19908;-46
2022/12/26 06:43:03;;;;;;;;;;;17.20;87.00;;;;;;5116334;28;19990;-44
2022/12/26 06:45:29;;;;;;;;;;;17.20;86.90;;;;;;5115939;28;19908;-43
2022/12/26 06:47:54;;;;;;;;;;;17.20;86.90;;;;;;5115961;28;19990;-45
2022/12/26 06:50:22;;;;;;;;;;;17.20;86.90;;;;;;5115595;28;19912;-43
2022/12/26 06:52:47;;;;;;;;;;;17.20;86.90;;;;;;5115814;28;19915;-44
2022/12/26 06:55:13;;;;;;;;;;;17.20;86.90;;;;;;5115148;28;20408;-44
2022/12/26 06:57:38;;;;;;;;;;;17.20;86.90;;;;;;5115502;28;20455;-42
2022/12/26 07:00:04;;;;;;;;;;;17.20;86.90;;;;;;5115334;28;19907;-43
2022/12/26 07:02:29;;;;;;;;;;;17.20;86.90;;;;;;5115620;28;20378;-44
2022/12/26 07:04:55;;;;;;;;;;;17.20;86.90;;;;;;5115638;28;20346;-44
2022/12/26 07:07:20;;;;;;;;;;;17.20;86.90;;;;;;5115463;28;19965;-44
2022/12/26 07:09:46;;;;;;;;;;;17.30;86.90;;;;;;5115233;28;19918;-42
2022/12/26 07:12:11;;;;;;;;;;;17.20;86.90;;;;;;5115471;28;19907;-43
2022/12/26 07:14:36;;;;;;;;;;;17.20;86.90;;;;;;5115387;28;20288;-43
2022/12/26 07:17:02;;;;;;;;;;;17.20;86.90;;;;;;5115661;28;19908;-43
2022/12/26 07:19:27;;;;;;;;;;;17.20;86.90;;;;;;5115080;28;19914;-43
2022/12/26 07:21:53;;;;;;;;;;;17.20;86.90;;;;;;5115645;28;19908;-42
2022/12/26 07:24:19;;;;;;;;;;;17.20;86.90;;;;;;5114981;28;19953;-44
2022/12/26 07:26:45;;;;;;;;;;;17.20;87.00;;;;;;5115235;28;20026;-44
2022/12/26 07:29:11;;;;;;;;;;;17.20;87.00;;;;;;5115143;28;19908;-42
2022/12/26 07:31:36;;;;;;;;;;;17.20;87.00;;;;;;5115084;28;19912;-43
2022/12/26 07:34:02;;;;;;;;;;;17.20;87.00;;;;;;5115018;28;19998;-43
2022/12/26 07:36:28;;;;;;;;;;;17.20;87.00;;;;;;5115314;28;19912;-42
2022/12/26 07:38:54;;;;;;;;;;;17.20;87.00;;;;;;5114509;28;19973;-43
2022/12/26 07:44:04;;;;;;;;;;;17.20;87.00;;;;;;5114711;28;19915;-42
2022/12/26 07:46:30;;;;;;;;;;;17.20;87.00;;;;;;5114444;28;20358;-43
2022/12/26 07:48:56;;;;;;;;;;;17.20;87.00;;;;;;5114769;28;19908;-44
2022/12/26 07:51:21;;;;;;;;;;;17.20;87.00;;;;;;5114505;28;19908;-43
2022/12/26 07:53:47;;;;;;;;;;;17.20;87.00;;;;;;5114655;28;20322;-43
2022/12/26 07:56:13;;;;;;;;;;;17.20;87.00;;;;;;5114606;28;19912;-47
2022/12/26 07:58:38;;;;;;;;;;;17.20;86.90;;;;;;5114565;28;19914;-44
2022/12/26 08:01:05;;;;;;;;;;;17.20;86.90;;;;;;5114281;28;19908;-44
2022/12/26 08:03:31;;;;;;;;;;;17.20;86.90;;;;;;5114309;28;19961;-43
2022/12/26 08:05:56;;;;;;;;;;;17.20;86.90;;;;;;5113083;28;20282;-45
2022/12/26 08:08:22;;;;;;;;;;;17.20;86.90;;;;;;5114086;28;19908;-43
2022/12/26 08:10:47;;;;;;;;;;;17.20;86.90;;;;;;5114355;28;19953;-42
2022/12/26 08:13:13;;;;;;;;;;;17.30;86.90;;;;;;5114447;28;19915;-46
2022/12/26 08:15:38;;;;;;;;;;;17.20;86.90;;;;;;5114203;28;19926;-43
2022/12/26 08:18:04;;;;;;;;;;;17.20;86.90;;;;;;5114439;28;20322;-42
2022/12/26 08:20:29;;;;;;;;;;;17.20;86.90;;;;;;5114725;28;19915;-42
2022/12/26 08:22:55;;;;;;;;;;;17.30;87.00;;;;;;5114429;28;20010;-42
2022/12/26 08:25:20;;;;;;;;;;;17.20;86.90;;;;;;5114536;28;19915;-42
2022/12/26 08:27:46;;;;;;;;;;;17.20;86.90;;;;;;5114730;28;19911;-44
2022/12/26 08:30:11;;;;;;;;;;;17.20;86.90;;;;;;5114497;28;20301;-45
2022/12/26 08:32:37;;;;;;;;;;;17.20;86.90;;;;;;5114296;28;19918;-42
2022/12/26 08:35:02;;;;;;;;;;;17.30;87.00;;;;;;5114493;28;20274;-42
2022/12/26 08:37:28;;;;;;;;;;;17.20;86.90;;;;;;5114260;28;19970;-42
2022/12/26 08:39:53;;;;;;;;;;;17.20;86.90;;;;;;5114320;28;19915;-43
2022/12/26 08:42:20;;;;;;;;;;;17.20;86.90;;;;;;5096007;28;19908;-43
2022/12/26 08:44:45;;;;;;;;;;;17.20;87.00;;;;;;5113873;28;19908;-44
2022/12/26 08:47:11;;;;;;;;;;;17.20;87.00;;;;;;5114029;28;20415;-43
2022/12/26 08:49:36;;;;;;;;;;;17.20;87.00;;;;;;5114287;28;19912;-43
2022/12/26 08:52:02;;;;;;;;;;;17.20;87.00;;;;;;5114057;28;19908;-44
2022/12/26 08:54:27;;;;;;;;;;;17.20;87.00;;;;;;5114129;28;19919;-44
2022/12/26 08:56:53;;;;;;;;;;;17.20;87.00;;;;;;5114153;28;20010;-42
2022/12/26 08:59:18;;;;;;;;;;;17.20;87.10;;;;;;5114365;28;19908;-43
2022/12/26 09:01:44;;;;;;;;;;;17.10;87.00;;;;;;5113921;28;19915;-43
2022/12/26 09:04:09;;;;;;;;;;;17.20;87.10;;;;;;5113658;28;19914;-43
2022/12/26 09:06:35;;;;;;;;;;;17.20;87.10;;;;;;5113892;28;19908;-43
2022/12/26 09:09:01;;;;;;;;;;;17.20;87.10;;;;;;5113609;28;20356;-42
2022/12/26 09:11:27;;;;;;;;;;;17.20;87.10;;;;;;5113818;28;19912;-45
2022/12/26 09:13:53;;;;;;;;;;;17.20;87.10;;;;;;5113916;28;19912;-42
2022/12/26 09:16:20;;;;;;;;;;;17.10;87.10;;;;;;5113471;28;20328;-46
2022/12/26 09:18:46;;;;;;;;;;;17.20;87.10;;;;;;5117134;28;19954;-43
2022/12/26 09:21:13;;;;;;;;;;;17.10;87.10;;;;;;5117560;28;20266;-43
2022/12/26 09:23:38;;;;;;;;;;;17.10;87.10;;;;;;5117029;28;20017;-42
2022/12/26 09:26:12;;;;;;;;;;;17.20;87.20;;;;;;5117425;28;20371;-42
2022/12/26 09:28:38;;;;;;;;;;;17.20;87.20;;;;;;5117120;28;19915;-44
2022/12/26 09:31:23;;;;;;;;;;;17.10;87.20;;;;;;5099127;28;19908;-42
2022/12/26 09:33:49;;;;;;;;;;;17.20;87.20;;;;;;5117249;28;19912;-42
2022/12/26 09:36:16;;;;;;;;;;;17.10;87.20;;;;;;5116963;28;19965;-44
2022/12/26 09:38:42;;;;;;;;;;;17.20;87.20;;;;;;5117386;28;19967;-43
2022/12/26 09:41:27;;;;;;;;;;;17.20;87.20;;;;;;5117253;28;20354;-42
2022/12/26 09:43:58;;;;;;;;;;;17.20;87.20;;;;;;5117182;28;19998;-43
2022/12/26 09:46:30;;;;;;;;;;;17.20;87.20;;;;;;5116819;28;20260;-41
2022/12/26 09:48:58;;;;;;;;;;;17.20;87.20;;;;;;5116770;28;20367;-42
2022/12/26 09:51:24;;;;;;;;;;;17.20;87.20;;;;;;5116707;28;19908;-42
2022/12/26 09:53:50;;;;;;;;;;;17.20;87.20;;;;;;5098656;28;19911;-42
2022/12/26 09:56:17;;;;;;;;;;;17.20;87.20;;;;;;5116791;28;20335;-43
2022/12/26 09:58:49;;;;;;;;;;;17.20;87.20;;;;;;5116496;28;19998;-42
2022/12/26 10:01:14;;;;;;;;;;;17.20;87.10;;;;;;5117164;28;19958;-42
2022/12/26 10:03:42;;;;;;;;;;;17.20;87.20;;;;;;5098560;28;19966;-42
2022/12/26 10:06:15;;;;;;;;;;;17.20;87.20;;;;;;5116740;28;20270;-43
2022/12/26 10:08:46;;;;;;;;;;;17.20;87.70;;;;;;5116722;28;19915;-45
2022/12/26 10:11:32;;;;;;;;;;;17.20;87.20;;;;;;5116347;28;20378;-45
2022/12/26 10:14:10;;;;;;;;;;;17.20;87.20;;;;;;5074297;28;19916;-42
2022/12/26 10:16:47;;;;;;;;;;;17.20;87.20;;;;;;5116906;28;19912;-42
2022/12/26 10:19:16;;;;;;;;;;;17.20;87.20;;;;;;5116610;28;20002;-42
2022/12/26 10:21:47;;;;;;;;;;;17.20;87.30;;;;;;5116191;28;19915;-42
2022/12/26 10:24:15;;;;;;;;;;;17.20;87.20;;;;;;5116492;28;19908;-42
2022/12/26 10:26:42;;;;;;;;;;;17.20;87.20;;;;;;5116362;28;19908;-42
2022/12/26 10:29:08;;;;;;;;;;;17.20;87.20;;;;;;5115432;28;19908;-45
2022/12/26 10:31:33;;;;;;;;;;;17.20;87.30;;;;;;5115922;28;19961;-43
2022/12/26 10:34:06;;;;;;;;;;;17.20;87.30;;;;;;5116076;28;19912;-43
2022/12/26 10:36:44;;;;;;;;;;;17.10;87.20;;;;;;5116325;28;19912;-44
2022/12/26 10:39:15;;;;;;;;;;;17.20;87.30;;;;;;5115742;28;19920;-43
2022/12/26 10:41:43;;;;;;;;;;;17.20;87.30;;;;;;5116094;28;19908;-42
2022/12/26 10:44:10;;;;;;;;;;;17.20;87.30;;;;;;5115654;28;19953;-42
2022/12/26 10:46:54;;;;;;;;;;;17.10;87.20;;;;;;5115648;28;19947;-43
2022/12/26 10:49:21;;;;;;;;;;;17.10;87.30;;;;;;5115851;28;19908;-44
2022/12/26 10:51:48;;;;;;;;;;;17.10;87.30;;;;;;5097500;28;19911;-43
2022/12/26 10:54:16;;;;;;;;;;;17.10;87.30;;;;;;5115847;28;19934;-42
2022/12/26 10:56:43;;;;;;;;;;;17.10;87.40;;;;;;5115542;28;20006;-45
2022/12/26 10:59:13;;;;;;;;;;;17.10;87.30;;;;;;5115842;28;19907;-46
2022/12/26 11:01:45;;;;;;;;;;;17.10;87.40;;;;;;5115446;28;19930;-44
2022/12/26 11:04:14;;;;;;;;;;;17.10;87.40;;;;;;5115644;28;19908;-46
2022/12/26 11:06:40;;;;;;;;;;;17.10;87.40;;;;;;5115652;28;19907;-44
2022/12/26 11:09:06;;;;;;;;;;;17.10;87.40;;;;;;5115543;28;20351;-43
2022/12/26 11:11:45;;;;;;;;;;;17.10;87.40;;;;;;5115289;28;19908;-43
2022/12/26 11:14:28;;;;;;;;;;;17.10;87.40;;;;;;5115361;28;19918;-44
2022/12/26 11:16:56;;;;;;;;;;;17.10;87.50;;;;;;5115546;28;20343;-45
2022/12/26 11:19:29;;;;;;;;;;;17.10;87.40;;;;;;5115364;28;19953;-44
2022/12/26 11:22:12;;;;;;;;;;;17.10;87.40;;;;;;5115410;28;20350;-43
2022/12/26 11:24:38;;;;;;;;;;;17.10;87.40;;;;;;5115301;28;19908;-43
2022/12/26 11:27:16;;;;;;;;;;;17.10;87.40;;;;;;5115228;28;19915;-44
2022/12/26 11:29:42;;;;;;;;;;;17.10;87.40;;;;;;5115255;28;19915;-46
2022/12/26 11:32:15;;;;;;;;;;;17.10;87.40;;;;;;5115141;28;20301;-46
2022/12/26 11:34:46;;;;;;;;;;;17.10;87.40;;;;;;5114707;28;19934;-44
2022/12/26 11:37:38;;;;;;;;;;;17.10;87.60;;;;;;5115080;28;19908;-44
2022/12/26 11:40:04;;;;;;;;;;;17.10;87.40;;;;;;5110301;28;19908;-43
2022/12/26 11:42:29;;;;;;;;;;;17.10;87.40;;;;;;5114638;28;19908;-43
2022/12/26 11:44:55;;;;;;;;;;;17.10;87.40;;;;;;5114682;28;19943;-44
2022/12/26 11:47:22;;;;;;;;;;;17.10;87.40;;;;;;5114866;28;20270;-44
2022/12/26 11:50:05;;;;;;;;;;;17.10;87.40;;;;;;5114746;28;19914;-46
2022/12/26 11:52:33;;;;;;;;;;;17.10;87.40;;;;;;5114711;28;19916;-47
2022/12/26 11:54:59;;;;;;;;;;;17.10;87.40;;;;;;5114805;28;20334;-43
2022/12/26 11:57:31;;;;;;;;;;;17.10;87.40;;;;;;5115064;28;19915;-43
2022/12/26 12:00:14;;;;;;;;;;;17.10;87.40;;;;;;5114645;28;19912;-43
2022/12/26 12:02:40;;;;;;;;;;;17.10;87.40;;;;;;5114521;28;19912;-44
2022/12/26 12:05:12;;;;;;;;;;;17.10;87.40;;;;;;5114542;28;20243;-43
2022/12/26 12:07:58;;;;;;;;;;;17.10;87.30;;;;;;5114506;28;19962;-44
2022/12/26 12:10:41;;;;;;;;;;;17.10;87.40;;;;;;5096242;28;20336;-43
2022/12/26 12:13:16;;;;;;;;;;;17.10;87.40;;;;;;5114424;28;19916;-43
2022/12/26 12:15:50;;;;;;;;;;;17.10;87.40;;;;;;5114155;28;20428;-43
2022/12/26 12:18:45;;;;;;;;;;;17.10;87.40;;;;;;5114538;28;19939;-43
2022/12/26 12:21:13;;;;;;;;;;;17.10;87.40;;;;;;5096456;28;19947;-43
2022/12/26 12:23:53;;;;;;;;;;;17.10;87.40;;;;;;5114677;28;19914;-45
2022/12/26 12:26:25;;;;;;;;;;;17.10;87.40;;;;;;5114403;28;19908;-43
2022/12/26 12:29:09;;;;;;;;;;;17.10;87.40;;;;;;5114191;28;20358;-43
2022/12/26 12:31:53;;;;;;;;;;;17.10;87.40;;;;;;5114250;28;19919;-43
2022/12/26 12:34:40;;;;;;;;;;;17.10;87.40;;;;;;5114086;28;19915;-43
2022/12/26 12:37:28;;;;;;;;;;;17.10;87.40;;;;;;5095909;28;19919;-43
2022/12/26 12:39:54;;;;;;;;;;;17.10;87.40;;;;;;5075546;28;19939;-44
2022/12/26 12:42:38;;;;;;;;;;;17.10;87.30;;;;;;5113621;28;20013;-46
2022/12/26 12:45:20;;;;;;;;;;;17.10;87.30;;;;;;5114024;28;19908;-47
2022/12/26 12:47:46;;;;;;;;;;;17.10;87.20;;;;;;5113891;28;19931;-43
2022/12/26 12:50:16;;;;;;;;;;;17.10;87.30;;;;;;5112952;28;23122;-44
2022/12/26 12:52:50;;;;;;;;;;;17.10;87.30;;;;;;5115661;28;19958;-43
2022/12/26 12:55:34;;;;;;;;;;;17.10;87.30;;;;;;5118029;28;19918;-43
2022/12/26 12:58:06;;;;;;;;;;;17.10;87.30;;;;;;5118028;28;19915;-43
2022/12/26 13:00:40;;;;;;;;;;;17.10;87.30;;;;;;5117654;28;19908;-43
2022/12/26 13:03:24;;;;;;;;;;;17.10;87.30;;;;;;5117893;28;19908;-44
2022/12/26 13:05:49;;;;;;;;;;;17.00;87.30;;;;;;5117824;28;19953;-44
2022/12/26 13:08:29;;;;;;;;;;;17.00;87.90;;;;;;5117586;28;19912;-44
2022/12/26 13:11:03;;;;;;;;;;;17.00;87.30;;;;;;5117799;28;20003;-43
2022/12/26 13:13:33;;;;;;;;;;;17.00;87.40;;;;;;5117652;28;19919;-45
2022/12/26 13:16:03;;;;;;;;;;;17.00;87.40;;;;;;5117744;28;19911;-43
2022/12/26 13:18:33;;;;;;;;;;;17.00;87.50;;;;;;5117719;28;19912;-44
2022/12/26 13:21:01;;;;;;;;;;;17.00;87.50;;;;;;5117562;28;19943;-44
2022/12/26 13:26:16;;;;;;;;;;;17.00;87.50;;;;;;5117295;28;19915;-45
2022/12/26 13:28:47;;;;;;;;;;;17.00;87.50;;;;;;5099118;28;19947;-42
2022/12/26 13:31:12;;;;;;;;;;;17.00;87.40;;;;;;5117070;28;19911;-46
2022/12/26 13:33:40;;;;;;;;;;;17.00;87.30;;;;;;5117211;28;19918;-46
2022/12/26 13:36:05;;;;;;;;;;;17.10;87.40;;;;;;5116898;28;19955;-47
2022/12/26 13:38:50;;;;;;;;;;;17.00;87.30;;;;;;5116678;28;20290;-43
2022/12/26 13:44:05;;;;;;;;;;;17.10;87.20;;;;;;5117250;28;20421;-44
2022/12/26 13:46:40;;;;;;;;;;;17.10;87.20;;;;;;5117028;28;19977;-48
2022/12/26 13:49:26;;;;;;;;;;;17.10;87.20;;;;;;5116734;28;20312;-43
2022/12/26 13:51:52;;;;;;;;;;;17.10;87.20;;;;;;5102464;28;19912;-46
2022/12/26 13:54:19;;;;;;;;;;;17.10;87.20;;;;;;5116955;28;20361;-44
2022/12/26 13:57:04;;;;;;;;;;;17.10;87.30;;;;;;5116633;28;19912;-44
2022/12/26 13:59:41;;;;;;;;;;;17.10;87.30;;;;;;5098026;28;19908;-43
2022/12/26 14:02:25;;;;;;;;;;;17.00;87.30;;;;;;5116579;28;19953;-42
2022/12/26 14:05:20;;;;;;;;;;;17.00;87.30;;;;;;5115756;28;19916;-44
2022/12/26 14:08:00;;;;;;;;;;;17.00;87.30;;;;;;5098353;28;19908;-44
2022/12/26 14:10:32;;;;;;;;;;;17.00;87.40;;;;;;5116629;28;19947;-44
2022/12/26 14:13:06;;;;;;;;;;;17.00;87.40;;;;;;5116497;28;19922;-45
2022/12/26 14:15:36;;;;;;;;;;;17.00;87.50;;;;;;5098250;28;19912;-44
2022/12/26 14:18:13;;;;;;;;;;;16.90;87.40;;;;;;5116294;28;19908;-45
2022/12/26 14:20:59;;;;;;;;;;;17.00;87.50;;;;;;5116454;28;20422;-44
2022/12/26 14:23:44;;;;;;;;;;;17.00;87.50;;;;;;5116324;28;19954;-44
2022/12/26 14:26:28;;;;;;;;;;;17.00;87.40;;;;;;5116046;28;20266;-43
2022/12/26 14:29:10;;;;;;;;;;;17.00;87.40;;;;;;5116340;28;19908;-44
2022/12/26 14:31:44;;;;;;;;;;;17.00;87.40;;;;;;5116080;28;19908;-43
2022/12/26 14:34:27;;;;;;;;;;;17.00;87.30;;;;;;5115877;28;20026;-43
2022/12/26 14:37:00;;;;;;;;;;;17.00;87.30;;;;;;5116174;28;20312;-43
2022/12/26 14:39:42;;;;;;;;;;;17.00;87.30;;;;;;5116158;28;19927;-43
2022/12/26 14:45:00;;;;;;;;;;;17.00;87.30;;;;;;5093764;28;19908;-45
2022/12/26 14:47:43;;;;;;;;;;;17.00;87.80;;;;;;5115503;28;19911;-43
2022/12/26 14:50:27;;;;;;;;;;;17.00;87.30;;;;;;5115632;28;19922;-44
2022/12/26 14:52:53;;;;;;;;;;;17.00;87.30;;;;;;5115526;28;19915;-43
2022/12/26 14:55:39;;;;;;;;;;;17.00;87.40;;;;;;5116075;28;20334;-44
2022/12/26 14:58:25;;;;;;;;;;;17.00;87.30;;;;;;5115833;28;19947;-43
2022/12/26 15:00:51;;;;;;;;;;;17.00;87.40;;;;;;5115717;28;19915;-43
2022/12/26 15:03:33;;;;;;;;;;;17.00;87.40;;;;;;5115355;28;20402;-44
2022/12/26 15:06:12;;;;;;;;;;;16.90;87.40;;;;;;5115700;28;19908;-45
2022/12/26 15:08:40;;;;;;;;;;;16.90;87.40;;;;;;5115188;28;19908;-46
2022/12/26 15:11:06;;;;;;;;;;;17.00;87.40;;;;;;5115232;28;19912;-44
2022/12/26 15:13:46;;;;;;;;;;;17.00;87.40;;;;;;5115103;28;20007;-45
2022/12/26 15:16:25;;;;;;;;;;;17.00;87.40;;;;;;5114890;28;19911;-44
2022/12/26 15:18:53;;;;;;;;;;;16.90;87.30;;;;;;5115293;28;19953;-43
2022/12/26 15:21:24;;;;;;;;;;;17.00;87.40;;;;;;5115006;28;20315;-43
2022/12/26 15:24:05;;;;;;;;;;;17.00;87.30;;;;;;5115275;28;19908;-45
2022/12/26 15:26:49;;;;;;;;;;;17.00;87.30;;;;;;5114955;28;20348;-43
2022/12/26 15:29:17;;;;;;;;;;;17.00;87.20;;;;;;5115214;28;19907;-43
2022/12/26 15:31:43;;;;;;;;;;;17.00;87.20;;;;;;5115094;28;19907;-44
2022/12/26 15:34:29;;;;;;;;;;;17.00;87.10;;;;;;5114979;28;19923;-44
2022/12/26 15:37:11;;;;;;;;;;;17.00;87.10;;;;;;5115157;28;19916;-45
2022/12/26 15:39:56;;;;;;;;;;;17.00;87.10;;;;;;5114762;28;19923;-43
2022/12/26 15:42:30;;;;;;;;;;;17.00;87.10;;;;;;5114910;28;20334;-45
2022/12/26 15:45:07;;;;;;;;;;;17.00;87.10;;;;;;5115146;28;19958;-46
2022/12/26 15:47:38;;;;;;;;;;;17.00;87.10;;;;;;5114738;28;19947;-45
2022/12/26 15:50:03;;;;;;;;;;;17.00;87.10;;;;;;5114474;28;20285;-44
2022/12/26 15:52:37;;;;;;;;;;;17.00;87.10;;;;;;5114945;28;19915;-43
2022/12/26 15:55:05;;;;;;;;;;;17.00;87.10;;;;;;5114320;28;19912;-45
2022/12/26 15:57:42;;;;;;;;;;;17.00;87.10;;;;;;5114484;28;20359;-44
2022/12/26 16:00:10;;;;;;;;;;;17.00;87.20;;;;;;5114272;28;19908;-45
2022/12/26 16:02:39;;;;;;;;;;;17.00;87.20;;;;;;5114650;28;19911;-43
2022/12/26 16:05:28;;;;;;;;;;;16.90;87.20;;;;;;5114519;28;19908;-44
2022/12/26 16:07:56;;;;;;;;;;;17.00;87.20;;;;;;5103198;28;19931;-45
2022/12/26 16:10:27;;;;;;;;;;;17.00;87.20;;;;;;5096267;28;19915;-46
2022/12/26 16:12:58;;;;;;;;;;;17.00;87.20;;;;;;5114199;28;19916;-44
2022/12/26 16:15:24;;;;;;;;;;;17.00;87.20;;;;;;5114600;28;20386;-46
2022/12/26 16:17:49;;;;;;;;;;;17.00;87.20;;;;;;5114604;28;19958;-45
2022/12/26 16:23:13;;;;;;;;;;;17.00;87.20;;;;;;5114068;28;19954;-46
2022/12/26 16:25:39;;;;;;;;;;;17.00;87.10;;;;;;5114280;28;20239;-44
2022/12/26 16:28:05;;;;;;;;;;;17.00;87.10;;;;;;5116521;28;19915;-43
2022/12/26 16:30:33;;;;;;;;;;;17.00;87.10;;;;;;5118302;28;20385;-44
2022/12/26 16:33:00;;;;;;;;;;;17.00;87.10;;;;;;5118418;28;19912;-47
2022/12/26 16:35:27;;;;;;;;;;;17.00;87.10;;;;;;5118530;28;19934;-43
2022/12/26 16:37:54;;;;;;;;;;;17.00;87.10;;;;;;5118613;28;19920;-43
2022/12/26 16:40:22;;;;;;;;;;;17.00;87.10;;;;;;5118417;28;19908;-43
2022/12/26 16:42:56;;;;;;;;;;;17.00;87.10;;;;;;5118335;28;19908;-43
2022/12/26 16:45:22;;;;;;;;;;;17.00;87.10;;;;;;5118020;28;20278;-44
2022/12/26 16:47:48;;;;;;;;;;;17.00;87.10;;;;;;5118304;28;19908;-44
2022/12/26 16:50:19;;;;;;;;;;;16.90;87.10;;;;;;5118570;28;19924;-43
2022/12/26 16:52:44;;;;;;;;;;;17.00;87.20;;;;;;5118101;28;19934;-43